createdAt,value
2018-04-07T00:00:46.396Z,69.27
2018-04-07T00:03:13.869Z,68.01
2018-04-07T00:05:41.322Z,68.12
2018-04-07T00:08:08.784Z,69.48
2018-04-07T00:10:36.251Z,69.96
2018-04-07T00:13:04.017Z,70.21
2018-04-07T00:15:31.514Z,71.24
2018-04-07T00:17:58.949Z,71.42
2018-04-07T00:20:26.421Z,72.32
2018-04-07T00:22:53.884Z,72.85
2018-04-07T00:25:21.326Z,72.90
2018-04-07T00:27:48.809Z,73.08
2018-04-07T00:30:16.281Z,73.45
2018-04-07T00:32:43.801Z,73.33
2018-04-07T00:35:11.373Z,73.25
2018-04-07T00:37:38.821Z,72.84
2018-04-07T00:40:06.257Z,72.45
2018-04-07T00:42:33.730Z,72.73
2018-04-07T00:45:01.174Z,73.29
2018-04-07T00:47:28.905Z,73.38
2018-04-07T00:49:56.398Z,73.75
2018-04-07T00:52:23.842Z,73.50
2018-04-07T00:54:51.306Z,73.20
2018-04-07T00:57:18.801Z,73.24
2018-04-07T00:59:46.275Z,73.65
2018-04-07T01:02:13.716Z,73.90
2018-04-07T01:04:41.177Z,73.85
2018-04-07T01:07:08.618Z,72.95
2018-04-07T01:09:36.060Z,72.70
2018-04-07T01:12:03.534Z,72.80
2018-04-07T01:14:30.990Z,73.88
2018-04-07T01:16:58.451Z,74.86
2018-04-07T01:19:25.909Z,75.08
2018-04-07T01:21:53.350Z,75.59
2018-04-07T01:24:20.789Z,75.90
2018-04-07T01:26:48.250Z,75.90
2018-04-07T01:29:15.712Z,76.00
2018-04-07T01:31:43.161Z,76.17
2018-04-07T01:34:10.647Z,76.65
2018-04-07T01:36:38.116Z,76.89
2018-04-07T01:39:05.589Z,76.74
2018-04-07T01:41:33.301Z,76.71
2018-04-07T01:44:00.755Z,76.98
2018-04-07T01:46:28.203Z,77.46
2018-04-07T01:48:55.677Z,77.38
2018-04-07T01:51:23.125Z,77.40
2018-04-07T01:53:50.565Z,77.00
2018-04-07T01:56:18.079Z,77.32
2018-04-07T01:58:45.522Z,77.08
2018-04-07T02:01:12.959Z,77.98
2018-04-07T02:03:40.428Z,76.90
2018-04-07T02:06:07.886Z,77.62
2018-04-07T02:08:35.324Z,77.88
2018-04-07T02:11:03.099Z,77.99
2018-04-07T02:13:30.570Z,77.98
2018-04-07T02:15:58.018Z,78.42
2018-04-07T02:18:25.818Z,78.46
2018-04-07T02:20:53.267Z,78.52
2018-04-07T02:23:20.721Z,80.03
2018-04-07T02:25:48.390Z,80.40
2018-04-07T02:28:15.843Z,79.78
2018-04-07T02:30:43.289Z,79.50
2018-04-07T02:33:10.876Z,79.39
2018-04-07T02:35:38.318Z,78.80
2018-04-07T02:38:05.766Z,78.97
2018-04-07T02:40:33.241Z,78.81
2018-04-07T02:43:00.677Z,78.61
2018-04-07T02:45:28.275Z,78.51
2018-04-07T02:47:55.772Z,78.50
2018-04-07T02:50:23.245Z,78.75
2018-04-07T02:52:50.683Z,78.87
2018-04-07T02:55:18.125Z,79.55
2018-04-07T02:57:45.680Z,79.92
2018-04-07T03:00:13.139Z,79.79
2018-04-07T03:02:40.597Z,79.44
2018-04-07T03:05:08.054Z,80.11
2018-04-07T03:07:35.497Z,80.48
2018-04-07T03:10:03.134Z,79.83
2018-04-07T03:12:30.709Z,80.91
2018-04-07T03:14:58.177Z,80.97
2018-04-07T03:17:25.668Z,80.74
2018-04-07T03:19:53.105Z,81.32
2018-04-07T03:22:20.769Z,81.05
2018-04-07T03:24:48.222Z,81.36
2018-04-07T03:27:15.661Z,80.74
2018-04-07T03:29:43.134Z,80.89
2018-04-07T03:32:10.608Z,81.88
2018-04-07T03:34:38.086Z,80.94
2018-04-07T03:37:05.522Z,81.65
2018-04-07T03:39:32.967Z,80.61
2018-04-07T03:42:00.445Z,81.48
2018-04-07T03:44:27.881Z,81.52
2018-04-07T03:46:55.432Z,81.54
2018-04-07T03:49:22.901Z,80.85
2018-04-07T03:51:50.369Z,81.21
2018-04-07T03:54:17.846Z,81.44
2018-04-07T03:56:45.285Z,80.81
2018-04-07T03:59:13.023Z,81.44
2018-04-07T04:01:40.473Z,82.98
2018-04-07T04:04:07.914Z,81.96
2018-04-07T04:06:35.371Z,82.14
2018-04-07T04:09:02.810Z,82.37
2018-04-07T04:11:30.530Z,81.82
2018-04-07T04:13:57.974Z,81.81
2018-04-07T04:16:25.411Z,82.77
2018-04-07T04:18:52.873Z,81.92
2018-04-07T04:21:20.334Z,82.74
2018-04-07T04:23:47.857Z,82.10
2018-04-07T04:26:15.305Z,82.24
2018-04-07T04:28:42.756Z,82.34
2018-04-07T04:31:10.215Z,83.06
2018-04-07T04:33:37.671Z,82.54
2018-04-07T04:36:05.392Z,82.92
2018-04-07T04:38:32.830Z,82.77
2018-04-07T04:41:00.272Z,82.08
2018-04-07T04:43:27.774Z,82.36
2018-04-07T04:45:55.233Z,82.30
2018-04-07T04:48:22.713Z,82.79
2018-04-07T04:50:50.149Z,82.16
2018-04-07T04:53:17.628Z,82.76
2018-04-07T04:55:45.133Z,83.06
2018-04-07T04:58:12.577Z,82.68
2018-04-07T05:00:40.084Z,82.96
2018-04-07T05:03:07.623Z,82.78
2018-04-07T05:05:35.057Z,82.08
2018-04-07T05:08:02.515Z,81.98
2018-04-07T05:10:29.985Z,82.74
2018-04-07T05:12:57.498Z,82.99
2018-04-07T05:15:24.937Z,83.47
2018-04-07T05:17:52.401Z,82.65
2018-04-07T05:20:19.876Z,81.43
2018-04-07T05:22:47.386Z,79.91
2018-04-07T05:25:14.849Z,77.89
2018-04-07T05:27:42.293Z,77.22
2018-04-07T05:30:09.788Z,77.27
2018-04-07T05:32:37.327Z,77.27
2018-04-07T05:35:04.781Z,75.59
2018-04-07T05:37:32.445Z,74.33
2018-04-07T05:39:59.913Z,74.20
2018-04-07T05:42:27.376Z,73.13
2018-04-07T05:44:54.856Z,73.07
2018-04-07T05:47:22.316Z,72.46
2018-04-07T05:49:49.885Z,72.21
2018-04-07T05:52:17.528Z,72.51
2018-04-07T05:54:45.018Z,72.58
2018-04-07T05:57:12.471Z,73.31
2018-04-07T05:59:39.937Z,73.83
2018-04-07T06:02:07.573Z,73.85
2018-04-07T06:04:35.076Z,74.30
2018-04-07T06:07:02.531Z,74.12
2018-04-07T06:09:30.009Z,74.49
2018-04-07T06:11:57.461Z,74.75
2018-04-07T06:14:25.317Z,74.84
2018-04-07T06:16:52.781Z,74.79
2018-04-07T06:19:20.268Z,74.79
2018-04-07T06:21:47.749Z,74.42
2018-04-07T06:24:15.185Z,74.33
2018-04-07T06:26:42.761Z,73.63
2018-04-07T06:29:10.221Z,73.76
2018-04-07T06:31:37.661Z,73.74
2018-04-07T06:34:05.128Z,73.93
2018-04-07T06:36:32.597Z,73.86
2018-04-07T06:39:00.094Z,73.70
2018-04-07T06:41:27.556Z,74.08
2018-04-07T06:43:55.004Z,73.77
2018-04-07T06:46:22.484Z,74.01
2018-04-07T06:48:49.938Z,73.34
2018-04-07T06:51:17.553Z,73.80
2018-04-07T06:53:45.001Z,72.97
2018-04-07T06:56:12.439Z,72.75
2018-04-07T06:58:39.913Z,73.00
2018-04-07T07:01:07.366Z,73.32
2018-04-07T07:03:34.861Z,72.94
2018-04-07T07:06:02.387Z,73.58
2018-04-07T07:08:29.832Z,71.81
2018-04-07T07:10:57.372Z,72.45
2018-04-07T07:13:24.813Z,71.69
2018-04-07T07:15:52.395Z,71.09
2018-04-07T07:18:19.872Z,72.29
2018-04-07T07:20:47.325Z,72.80
2018-04-07T07:23:14.832Z,71.75
2018-04-07T07:25:42.274Z,70.70
2018-04-07T07:28:10.109Z,70.21
2018-04-07T07:30:37.563Z,69.28
2018-04-07T07:33:05.017Z,66.84
2018-04-07T07:35:32.488Z,66.97
2018-04-07T07:37:59.933Z,66.50
2018-04-07T07:40:27.557Z,66.44
2018-04-07T07:42:54.993Z,66.49
2018-04-07T07:45:22.443Z,66.61
2018-04-07T07:47:49.913Z,66.49
2018-04-07T07:50:17.393Z,65.17
2018-04-07T07:52:44.882Z,64.77
2018-04-07T07:55:12.318Z,64.93
2018-04-07T07:57:39.758Z,64.97
2018-04-07T08:00:07.249Z,63.39
2018-04-07T08:02:34.697Z,63.18
2018-04-07T08:05:02.366Z,62.30
2018-04-07T08:07:29.838Z,62.48
2018-04-07T08:09:57.285Z,62.55
2018-04-07T08:12:24.823Z,61.47
2018-04-07T08:14:52.269Z,62.07
2018-04-07T08:17:19.805Z,61.10
2018-04-07T08:19:47.251Z,61.67
2018-04-07T08:22:14.706Z,60.21
2018-04-07T08:24:42.178Z,60.04
2018-04-07T08:27:09.645Z,60.35
2018-04-07T08:29:37.372Z,60.46
2018-04-07T08:32:04.879Z,59.70
2018-04-07T08:34:32.317Z,59.40
2018-04-07T08:36:59.850Z,59.06
2018-04-07T08:39:27.366Z,58.83
2018-04-07T08:41:54.803Z,58.14
2018-04-07T08:44:22.249Z,58.31
2018-04-07T08:46:49.722Z,57.68
2018-04-07T08:49:17.200Z,57.50
2018-04-07T08:51:44.669Z,57.53
2018-04-07T08:54:12.573Z,56.91
2018-04-07T08:56:40.017Z,56.72
2018-04-07T08:59:07.477Z,55.84
2018-04-07T09:01:34.986Z,56.48
2018-04-07T09:04:02.429Z,55.90
2018-04-07T09:06:30.126Z,55.75
2018-04-07T09:08:57.577Z,56.26
2018-04-07T09:11:25.044Z,56.16
2018-04-07T09:13:52.520Z,54.18
2018-04-07T09:16:19.975Z,54.46
2018-04-07T09:18:47.599Z,54.90
2018-04-07T09:21:15.053Z,55.35
2018-04-07T09:23:42.557Z,53.65
2018-04-07T09:26:10.073Z,53.60
2018-04-07T09:28:37.517Z,54.03
2018-04-07T09:31:10.552Z,53.81
2018-04-07T09:33:37.998Z,53.30
2018-04-07T09:36:05.453Z,53.13
2018-04-07T09:38:32.933Z,53.39
2018-04-07T09:41:00.396Z,52.54
2018-04-07T09:43:28.105Z,52.60
2018-04-07T09:45:55.579Z,52.83
2018-04-07T09:48:23.038Z,52.83
2018-04-07T09:50:50.539Z,52.82
2018-04-07T09:53:18.012Z,52.57
2018-04-07T09:55:45.738Z,52.85
2018-04-07T09:58:13.215Z,52.85
2018-04-07T10:00:47.676Z,51.70
2018-04-07T10:03:20.755Z,51.98
2018-04-07T10:05:48.437Z,51.71
2018-04-07T10:08:15.893Z,51.57
2018-04-07T10:10:43.341Z,51.68
2018-04-07T10:13:10.837Z,51.29
2018-04-07T10:15:38.294Z,50.90
2018-04-07T10:18:05.789Z,50.08
2018-04-07T10:20:33.241Z,51.39
2018-04-07T10:23:00.708Z,50.87
2018-04-07T10:25:28.201Z,51.82
2018-04-07T10:27:55.688Z,51.63
2018-04-07T10:30:23.349Z,51.20
2018-04-07T10:32:50.800Z,49.77
2018-04-07T10:35:18.255Z,50.19
2018-04-07T10:37:45.745Z,49.62
2018-04-07T10:40:13.197Z,49.56
2018-04-07T10:42:40.894Z,49.94
2018-04-07T10:45:08.368Z,50.06
2018-04-07T10:47:35.826Z,49.51
2018-04-07T10:50:03.309Z,48.87
2018-04-07T10:52:31.144Z,49.63
2018-04-07T10:54:58.963Z,48.62
2018-04-07T10:57:26.429Z,48.65
2018-04-07T10:59:54.017Z,49.40
2018-04-07T11:02:21.484Z,49.88
2018-04-07T11:04:48.960Z,48.59
2018-04-07T11:07:16.449Z,49.68
2018-04-07T11:09:43.901Z,49.83
2018-04-07T11:12:11.360Z,49.09
2018-04-07T11:14:38.870Z,49.30
2018-04-07T11:17:06.325Z,49.75
2018-04-07T11:19:33.821Z,49.75
2018-04-07T11:22:01.282Z,48.04
2018-04-07T11:24:28.733Z,47.78
2018-04-07T11:26:56.240Z,47.29
2018-04-07T11:29:23.697Z,46.04
2018-04-07T11:31:51.514Z,46.34
2018-04-07T11:34:18.993Z,45.91
2018-04-07T11:36:46.447Z,46.19
2018-04-07T11:39:14.789Z,45.66
2018-04-07T11:41:42.248Z,44.60
2018-04-07T11:44:10.004Z,45.65
2018-04-07T11:46:37.460Z,45.69
2018-04-07T11:49:12.447Z,45.00
2018-04-07T11:51:40.372Z,45.52
2018-04-07T11:54:07.983Z,44.71
2018-04-07T11:56:35.474Z,44.96
2018-04-07T11:59:02.941Z,45.28
2018-04-07T12:01:30.703Z,46.10
2018-04-07T12:03:58.173Z,46.04
2018-04-07T12:06:28.610Z,45.34
2018-04-07T12:08:56.326Z,45.53
2018-04-07T12:11:23.802Z,45.45
2018-04-07T12:13:51.364Z,45.59
2018-04-07T12:16:18.823Z,45.34
2018-04-07T12:18:46.300Z,45.36
2018-04-07T12:21:14.328Z,45.64
2018-04-07T12:23:41.786Z,45.12
2018-04-07T12:26:09.310Z,43.96
2018-04-07T12:28:36.780Z,44.39
2018-04-07T12:31:04.249Z,45.43
2018-04-07T12:33:31.725Z,45.13
2018-04-07T12:35:59.191Z,44.67
2018-04-07T12:38:26.709Z,44.57
2018-04-07T12:40:54.172Z,44.77
2018-04-07T12:43:21.637Z,45.05
2018-04-07T12:45:49.115Z,45.92
2018-04-07T12:48:16.560Z,44.87
2018-04-07T12:50:44.174Z,44.26
2018-04-07T12:53:11.642Z,43.55
2018-04-07T12:55:39.123Z,44.00
2018-04-07T12:58:06.683Z,43.37
2018-04-07T13:00:34.157Z,43.28
2018-04-07T13:03:01.804Z,44.30
2018-04-07T13:05:29.297Z,44.61
2018-04-07T13:07:56.819Z,42.21
2018-04-07T13:10:24.298Z,42.18
2018-04-07T13:12:51.752Z,42.61
2018-04-07T13:15:19.581Z,43.20
2018-04-07T13:17:47.494Z,42.29
2018-04-07T13:20:14.953Z,42.45
2018-04-07T13:22:42.438Z,41.91
2018-04-07T13:25:11.596Z,42.47
2018-04-07T13:27:40.874Z,41.71
2018-04-07T13:30:11.201Z,41.63
2018-04-07T13:32:38.986Z,41.66
2018-04-07T13:35:06.526Z,40.95
2018-04-07T13:37:33.978Z,41.55
2018-04-07T13:40:02.579Z,41.85
2018-04-07T13:42:30.170Z,40.72
2018-04-07T13:44:57.649Z,40.89
2018-04-07T13:47:25.101Z,42.90
2018-04-07T13:49:52.570Z,42.16
2018-04-07T13:52:20.064Z,41.25
2018-04-07T13:54:47.515Z,42.58
2018-04-07T13:57:15.289Z,42.59
2018-04-07T13:59:42.737Z,42.02
2018-04-07T14:02:10.193Z,41.56
2018-04-07T14:04:38.963Z,41.78
2018-04-07T14:07:06.425Z,41.49
2018-04-07T14:09:34.057Z,41.08
2018-04-07T14:12:03.154Z,41.68
2018-04-07T14:14:31.752Z,41.54
2018-04-07T14:16:59.975Z,41.10
2018-04-07T14:19:29.719Z,40.88
2018-04-07T14:21:57.645Z,40.32
2018-04-07T14:24:25.101Z,40.39
2018-04-07T14:26:52.569Z,41.26
2018-04-07T14:29:20.040Z,40.81
2018-04-07T14:31:47.496Z,41.25
2018-04-07T14:34:15.995Z,40.81
2018-04-07T14:36:47.410Z,40.26
2018-04-07T14:39:15.077Z,40.23
2018-04-07T14:41:42.549Z,40.17
2018-04-07T14:44:10.045Z,40.09
2018-04-07T14:46:37.525Z,40.12
2018-04-07T14:49:04.989Z,39.33
2018-04-07T14:51:32.455Z,39.88
2018-04-07T14:53:59.941Z,40.21
2018-04-07T14:56:27.427Z,39.37
2018-04-07T14:58:54.880Z,39.86
2018-04-07T15:01:22.357Z,39.14
2018-04-07T15:03:49.822Z,39.52
2018-04-07T15:06:17.275Z,39.52
2018-04-07T15:08:44.885Z,39.58
2018-04-07T15:11:12.347Z,38.58
2018-04-07T15:13:39.801Z,38.43
2018-04-07T15:16:07.404Z,38.10
2018-04-07T15:18:34.870Z,38.58
2018-04-07T15:21:02.358Z,37.90
2018-04-07T15:23:29.883Z,38.26
2018-04-07T15:25:57.392Z,38.20
2018-04-07T15:28:25.401Z,38.04
2018-04-07T15:30:52.857Z,38.07
2018-04-07T15:33:20.360Z,39.46
2018-04-07T15:35:47.919Z,38.26
2018-04-07T15:38:15.389Z,37.98
2018-04-07T15:40:43.143Z,37.75
2018-04-07T15:43:10.613Z,37.92
2018-04-07T15:45:38.111Z,37.71
2018-04-07T15:48:05.597Z,37.91
2018-04-07T15:50:33.348Z,38.84
2018-04-07T15:53:01.196Z,39.06
2018-04-07T15:55:28.674Z,37.84
2018-04-07T15:57:56.181Z,37.80
2018-04-07T16:00:23.652Z,37.40
2018-04-07T16:02:51.113Z,37.82
2018-04-07T16:05:18.665Z,37.56
2018-04-07T16:07:46.369Z,37.77
2018-04-07T16:10:14.077Z,37.42
2018-04-07T16:12:41.557Z,37.27
2018-04-07T16:15:09.065Z,37.50
2018-04-07T16:17:36.901Z,37.91
2018-04-07T16:20:04.362Z,38.10
2018-04-07T16:22:31.824Z,38.20
2018-04-07T16:24:59.307Z,37.12
2018-04-07T16:27:27.997Z,37.49
2018-04-07T16:29:56.256Z,36.39
2018-04-07T16:32:23.719Z,38.10
2018-04-07T16:34:51.184Z,37.57
2018-04-07T16:37:18.673Z,36.68
2018-04-07T16:39:46.132Z,36.94
2018-04-07T16:42:13.795Z,36.68
2018-04-07T16:44:41.245Z,36.89
2018-04-07T16:47:08.711Z,36.81
2018-04-07T16:49:36.221Z,37.16
2018-04-07T16:52:03.691Z,37.37
2018-04-07T16:54:31.198Z,37.63
2018-04-07T16:56:58.649Z,38.88
2018-04-07T16:59:26.093Z,39.43
2018-04-07T17:01:53.564Z,39.67
2018-04-07T17:04:21.033Z,40.23
2018-04-07T17:06:48.525Z,40.45
2018-04-07T17:09:15.973Z,40.89
2018-04-07T17:11:43.427Z,41.01
2018-04-07T17:14:10.893Z,40.96
2018-04-07T17:16:38.344Z,41.03
2018-04-07T17:19:05.988Z,41.64
2018-04-07T17:21:33.450Z,42.48
2018-04-07T17:24:00.956Z,43.96
2018-04-07T17:26:28.393Z,44.22
2018-04-07T17:28:55.837Z,44.61
2018-04-07T17:31:23.313Z,44.63
2018-04-07T17:33:50.764Z,45.45
2018-04-07T17:36:18.232Z,46.13
2018-04-07T17:38:45.721Z,47.20
2018-04-07T17:41:13.170Z,48.19
2018-04-07T17:43:40.643Z,48.26
2018-04-07T17:46:08.090Z,48.09
2018-04-07T17:48:35.543Z,48.35
2018-04-07T17:51:03.906Z,48.71
2018-04-07T17:53:31.349Z,48.69
2018-04-07T17:55:58.919Z,49.02
2018-04-07T17:58:26.386Z,49.22
2018-04-07T18:00:53.834Z,49.64
2018-04-07T18:03:21.302Z,51.37
2018-04-07T18:05:48.753Z,51.65
2018-04-07T18:08:16.616Z,51.77
2018-04-07T18:10:44.057Z,51.77
2018-04-07T18:13:11.518Z,52.22
2018-04-07T18:15:38.994Z,52.25
2018-04-07T18:18:06.449Z,52.51
2018-04-07T18:20:34.105Z,53.30
2018-04-07T18:23:01.566Z,53.30
2018-04-07T18:25:29.017Z,53.77
2018-04-07T18:27:56.514Z,53.92
2018-04-07T18:30:23.961Z,53.68
2018-04-07T18:32:51.522Z,53.65
2018-04-07T18:35:18.966Z,53.75
2018-04-07T18:37:46.422Z,54.25
2018-04-07T18:40:13.912Z,55.26
2018-04-07T18:42:41.389Z,55.24
2018-04-07T18:45:08.859Z,55.21
2018-04-07T18:47:36.334Z,55.72
2018-04-07T18:50:04.136Z,55.54
2018-04-07T18:52:31.617Z,56.19
2018-04-07T18:54:59.128Z,55.22
2018-04-07T18:57:26.643Z,55.18
2018-04-07T18:59:54.131Z,55.71
2018-04-07T19:02:21.939Z,55.29
2018-04-07T19:04:49.430Z,54.67
2018-04-07T19:07:16.954Z,55.28
2018-04-07T19:09:44.536Z,54.78
2018-04-07T19:12:12.033Z,55.42
2018-04-07T19:14:39.949Z,57.00
2018-04-07T19:17:07.463Z,58.22
2018-04-07T19:19:34.967Z,58.47
2018-04-07T19:22:02.477Z,58.84
2018-04-07T19:24:31.583Z,59.81
2018-04-07T19:27:08.498Z,60.06
2018-04-07T19:29:36.314Z,59.96
2018-04-07T19:32:03.813Z,59.88
2018-04-07T19:34:31.281Z,59.33
2018-04-07T19:36:58.789Z,59.16
2018-04-07T19:39:26.303Z,60.79
2018-04-07T19:41:53.827Z,61.10
2018-04-07T19:44:21.390Z,62.12
2018-04-07T19:46:48.882Z,63.32
2018-04-07T19:49:16.347Z,63.20
2018-04-07T19:51:44.094Z,64.73
2018-04-07T19:54:11.590Z,65.23
2018-04-07T19:56:39.069Z,65.61
2018-04-07T19:59:06.537Z,66.02
2018-04-07T20:01:33.981Z,66.24
2018-04-07T20:04:01.766Z,66.71
2018-04-07T20:06:29.269Z,67.10
2018-04-07T20:08:56.772Z,67.03
2018-04-07T20:11:24.301Z,67.69
2018-04-07T20:13:51.763Z,67.82
2018-04-07T20:16:19.258Z,68.21
2018-04-07T20:18:46.740Z,67.93
2018-04-07T20:21:14.428Z,68.35
2018-04-07T20:23:41.937Z,68.42
2018-04-07T20:26:09.426Z,70.18
2018-04-07T20:28:36.905Z,70.71
2018-04-07T20:31:04.370Z,69.92
2018-04-07T20:33:31.891Z,70.84
2018-04-07T20:35:59.399Z,70.54
2018-04-07T20:38:26.878Z,71.07
2018-04-07T20:40:56.279Z,70.65
2018-04-07T20:43:23.757Z,70.93
2018-04-07T20:45:51.439Z,70.77
2018-04-07T20:48:18.935Z,71.30
2018-04-07T20:50:46.632Z,71.11
2018-04-07T20:53:14.106Z,71.38
2018-04-07T20:55:41.581Z,71.28
2018-04-07T20:58:09.066Z,71.59
2018-04-07T21:00:36.534Z,71.25
2018-04-07T21:03:04.182Z,71.49
2018-04-07T21:05:31.633Z,72.83
2018-04-07T21:07:59.083Z,72.77
2018-04-07T21:10:26.546Z,73.29
2018-04-07T21:12:54.014Z,72.94
2018-04-07T21:15:21.649Z,73.55
2018-04-07T21:17:49.124Z,72.81
2018-04-07T21:20:16.591Z,72.88
2018-04-07T21:22:44.087Z,73.73
2018-04-07T21:25:11.559Z,73.91
2018-04-07T21:27:39.014Z,74.71
2018-04-07T21:30:06.493Z,74.81
2018-04-07T21:32:33.945Z,74.93
2018-04-07T21:35:01.409Z,74.91
2018-04-07T21:37:28.908Z,74.79
2018-04-07T21:39:56.356Z,74.48
2018-04-07T21:42:23.845Z,75.02
2018-04-07T21:44:51.353Z,75.19
2018-04-07T21:47:18.821Z,75.66
2018-04-07T21:49:46.517Z,75.50
2018-04-07T21:52:14.229Z,74.96
2018-04-07T21:54:41.691Z,75.32
2018-04-07T21:57:09.189Z,75.38
2018-04-07T21:59:36.698Z,75.95
2018-04-07T22:02:04.870Z,76.56
2018-04-07T22:04:32.321Z,75.69
2018-04-07T22:07:00.244Z,75.25
2018-04-07T22:09:27.699Z,76.50
2018-04-07T22:11:55.225Z,76.25
2018-04-07T22:14:22.957Z,76.67
2018-04-07T22:16:50.410Z,76.54
2018-04-07T22:19:17.877Z,77.15
2018-04-07T22:21:45.490Z,77.02
2018-04-07T22:24:12.992Z,77.63
2018-04-07T22:26:40.465Z,77.35
2018-04-07T22:29:09.913Z,78.10
2018-04-07T22:31:37.389Z,78.01
2018-04-07T22:34:04.846Z,78.19
2018-04-07T22:36:32.549Z,77.47
2018-04-07T22:39:00.014Z,76.96
2018-04-07T22:41:27.500Z,79.76
2018-04-07T22:43:54.978Z,79.22
2018-04-07T22:46:22.421Z,78.21
2018-04-07T22:48:49.925Z,78.29
2018-04-07T22:51:17.449Z,78.68
2018-04-07T22:53:44.863Z,78.52
2018-04-07T22:56:12.330Z,78.82
2018-04-07T22:58:39.845Z,78.51
2018-04-07T23:01:07.654Z,78.11
2018-04-07T23:03:35.093Z,79.22
2018-04-07T23:06:02.552Z,79.34
2018-04-07T23:08:30.021Z,79.67
2018-04-07T23:10:57.482Z,78.98
2018-04-07T23:13:24.967Z,80.03
2018-04-07T23:15:52.426Z,79.68
2018-04-07T23:18:19.904Z,79.34
2018-04-07T23:20:47.378Z,79.77
2018-04-07T23:23:14.837Z,80.80
2018-04-07T23:25:42.644Z,80.14
2018-04-07T23:28:10.166Z,80.97
2018-04-07T23:30:37.637Z,80.94
2018-04-07T23:33:05.108Z,80.96
2018-04-07T23:35:32.565Z,80.08
2018-04-07T23:38:00.058Z,80.05
2018-04-07T23:40:27.505Z,80.43
2018-04-07T23:42:54.974Z,80.61
2018-04-07T23:45:22.438Z,81.07
2018-04-07T23:47:49.930Z,80.32
2018-04-07T23:50:17.424Z,79.85
2018-04-07T23:52:44.869Z,79.67
2018-04-07T23:55:12.321Z,79.43
2018-04-07T23:57:39.793Z,79.57
